Time;durP1;ratioP1;P1;durP2;ratioP2;P2;SDS_P1;SDS_P2;PMS_P1;PMS_P2;Temp;Humidity;BMP_temperature;BMP_pressure;BME280_temperature;BME280_humidity;BME280_pressure;Samples;Min_cycle;Max_cycle;Signal;HPM_P1;HPM_P2
2022/09/29 00:00:17;;;;;;;9.02;7.75;;;;;;;27.98;70.58;100469.88;5076178;27;70075;-50
2022/09/29 00:02:49;;;;;;;13.30;7.35;;;;;;;27.97;73.00;100464.66;5070515;27;66820;-50
2022/09/29 00:05:22;;;;;;;7.85;7.05;;;;;;;28.05;71.35;100484.19;5069663;27;70582;-50
2022/09/29 00:07:54;;;;;;;;;;;;;;;27.81;75.00;100482.13;5066480;27;67035;-48
2022/09/29 00:10:26;;;;;;;9.30;5.93;;;;;;;28.02;74.45;100484.56;5076839;27;70404;-48
2022/09/29 00:12:59;;;;;;;6.57;5.85;;;;;;;28.13;73.20;100498.47;5071063;27;67321;-47
2022/09/29 00:15:31;;;;;;;6.95;6.22;;;;;;;28.14;71.81;100483.91;5074501;27;70306;-48
2022/09/29 00:18:03;;;;;;;;;;;;;;;27.90;75.52;100502.44;5066549;27;66328;-47
2022/09/29 00:20:55;;;;;;;6.15;5.57;;;;;;;28.23;71.83;100504.25;5063193;27;70850;-48
2022/09/29 00:23:27;;;;;;;;;;;;;;;27.94;75.93;100511.75;5063552;27;66144;-43
2022/09/29 00:26:23;;;;;;;6.75;6.13;;;;;;;28.18;75.36;100522.94;5068761;27;70596;-44
2022/09/29 00:28:57;;;;;;;10.05;6.47;;;;;;;28.24;72.61;100492.41;5065376;27;66103;-45
2022/09/29 00:31:32;;;;;;;5.80;5.35;;;;;;;27.97;72.58;100454.75;5065259;27;70739;-49
2022/09/29 00:34:05;;;;;;;14.07;5.28;;;;;;;28.38;74.42;100518.31;5071915;27;66836;-46
2022/09/29 00:36:37;;;;;;;5.75;5.03;;;;;;;28.37;75.23;100530.16;5071369;27;70393;-43
2022/09/29 00:39:10;;;;;;;6.55;5.38;;;;;;;28.45;72.31;100534.53;5072467;27;66827;-47
2022/09/29 00:41:42;;;;;;;9.73;5.97;;;;;;;28.51;71.41;100541.75;5070587;27;70088;-48
2022/09/29 00:44:14;;;;;;;6.18;4.95;;;;;;;28.54;70.61;100554.00;5063971;27;66559;-48
2022/09/29 00:46:51;;;;;;;15.13;4.78;;;;;;;28.49;70.21;100555.44;5070932;27;71085;-48
2022/09/29 00:49:30;;;;;;;9.23;4.55;;;;;;;28.04;70.30;100485.19;5070735;27;66745;-48
2022/09/29 00:52:29;;;;;;;6.75;4.70;;;;;;;28.01;70.51;100509.88;5070234;27;71028;-50
2022/09/29 00:55:13;;;;;;;10.77;4.40;;;;;;;27.55;70.24;100413.75;5070534;27;66556;-48
2022/09/29 00:58:23;;;;;;;10.20;4.63;;;;;;;28.40;70.00;100582.84;5064837;27;71297;-48
2022/09/29 01:00:55;;;;;;;8.32;4.00;;;;;;;28.60;70.22;100590.94;5020186;28;66803;-48
2022/09/29 01:03:36;;;;;;;6.90;4.20;;;;;;;28.12;69.56;100521.09;5078237;27;70625;-48
2022/09/29 01:06:20;;;;;;;7.75;4.30;;;;;;;28.50;69.95;100588.66;5074923;27;67051;-47
2022/09/29 01:09:05;;;;;;;7.28;4.25;;;;;;;28.45;69.30;100583.91;5065133;27;70360;-47
2022/09/29 01:11:38;;;;;;;5.13;3.85;;;;;;;28.67;69.63;100606.06;5077666;27;67093;-47
2022/09/29 01:14:11;;;;;;;5.10;4.22;;;;;;;28.69;69.98;100603.97;5064653;27;70903;-47
2022/09/29 01:16:44;;;;;;;4.72;3.60;;;;;;;28.59;69.97;100575.78;5077594;27;67054;-48
2022/09/29 01:19:47;;;;;;;5.03;4.13;;;;;;;28.58;69.96;100596.53;5069006;27;70914;-49
2022/09/29 01:22:47;;;;;;;6.15;3.95;;;;;;;28.64;69.57;100611.88;5068947;27;66377;-47
2022/09/29 01:25:39;;;;;;;4.97;4.00;;;;;;;28.69;69.99;100609.34;5070686;27;70874;-48
2022/09/29 01:28:43;;;;;;;4.88;3.55;;;;;;;28.10;69.97;100528.53;5065651;27;66871;-47
2022/09/29 01:31:30;;;;;;;4.68;4.13;;;;;;;28.03;69.45;100491.63;5086448;27;70665;-49
2022/09/29 01:34:16;;;;;;;4.28;3.80;;;;;;;28.70;69.68;100611.03;5064367;27;66458;-47
2022/09/29 01:37:15;;;;;;;5.43;3.67;;;;;;;28.62;69.56;100610.44;5070455;27;71175;-49
2022/09/29 01:40:18;;;;;;;3.80;3.47;;;;;;;28.08;69.50;100517.94;5067678;27;67051;-48
2022/09/29 01:43:19;;;;;;;4.30;3.90;;;;;;;28.33;69.38;100555.88;5072916;27;70270;-48
2022/09/29 01:46:06;;;;;;;4.13;3.83;;;;;;;28.63;69.17;100593.19;5061896;27;66336;-48
2022/09/29 01:48:46;;;;;;;4.00;3.60;;;;;;;28.22;69.43;100506.13;5069507;27;71273;-48
2022/09/29 01:51:34;;;;;;;7.32;4.00;;;;;;;28.72;69.78;100602.72;5066105;27;66355;-48
2022/09/29 01:54:13;;;;;;;5.57;3.50;;;;;;;28.48;69.26;100540.31;5066744;27;70301;-47
2022/09/29 01:56:55;;;;;;;4.10;3.70;;;;;;;28.24;69.35;100514.00;5067212;27;67057;-48
2022/09/29 02:00:00;;;;;;;4.25;3.40;;;;;;;28.62;69.72;100607.75;5065716;27;70577;-48
2022/09/29 02:02:56;;;;;;;4.55;3.15;;;;;;;28.62;69.44;100586.16;5069533;27;66949;-48
2022/09/29 02:05:45;;;;;;;5.22;3.03;;;;;;;28.64;69.97;100589.44;5071344;27;70525;-48
2022/09/29 02:08:25;;;;;;;3.95;3.20;;;;;;;28.82;69.43;100605.81;5070783;27;65926;-48
2022/09/29 02:11:06;;;;;;;5.10;3.10;;;;;;;28.71;69.47;100590.28;5064552;27;71015;-47
2022/09/29 02:14:03;;;;;;;4.60;3.40;;;;;;;28.74;69.34;100595.25;5064858;27;66408;-47
2022/09/29 02:16:47;;;;;;;3.20;3.00;;;;;;;28.81;69.62;100579.03;5068899;27;71039;-48
2022/09/29 02:19:24;;;;;;;4.50;3.33;;;;;;;28.32;69.04;100489.47;5071248;27;67519;-49
2022/09/29 02:21:57;;;;;;;3.40;3.10;;;;;;;28.72;69.07;100554.13;5065959;27;69841;-47
2022/09/29 02:24:30;;;;;;;3.72;3.30;;;;;;;28.89;69.03;100576.06;5069866;27;65891;-49
2022/09/29 02:27:04;;;;;;;3.85;3.40;;;;;;;28.80;68.78;100556.59;5073878;28;70826;-48
2022/09/29 02:29:37;;;;;;;3.42;3.13;;;;;;;28.91;69.01;100574.81;5067933;27;67044;-48
2022/09/29 02:32:09;;;;;;;3.45;2.88;;;;;;;28.93;69.22;100582.72;5069412;27;70273;-52
2022/09/29 02:34:46;;;;;;;3.45;3.15;;;;;;;28.95;69.13;100584.16;5066682;27;66137;-49
2022/09/29 02:37:32;;;;;;;3.00;2.70;;;;;;;28.95;68.51;100586.03;5060722;27;70527;-49
2022/09/29 02:40:24;;;;;;;3.85;3.17;;;;;;;28.94;68.67;100595.97;5070538;27;66163;-49
2022/09/29 02:43:08;;;;;;;;;;;;;;;28.51;69.76;100596.53;5073261;27;69546;-49
2022/09/29 02:45:49;;;;;;;3.55;3.25;;;;;;;28.90;68.75;100594.78;5073715;27;66137;-49
2022/09/29 02:48:34;;;;;;;6.35;2.88;;;;;;;28.47;68.66;100525.19;5068356;27;70629;-48
2022/09/29 02:51:09;;;;;;;3.50;3.20;;;;;;;28.99;68.92;100589.13;5077352;27;66901;-49
2022/09/29 02:54:06;;;;;;;3.42;2.90;;;;;;;28.64;68.39;100546.25;5070320;27;70122;-47
2022/09/29 02:56:46;;;;;;;2.65;2.42;;;;;;;29.01;68.44;100608.66;5080357;27;66425;-48
2022/09/29 02:59:34;;;;;;;3.63;3.33;;;;;;;28.97;68.72;100600.13;5068419;27;70503;-49
2022/09/29 03:02:06;;;;;;;3.17;2.88;;;;;;;28.99;68.44;100597.22;5068558;27;66993;-48
2022/09/29 03:04:39;;;;;;;3.38;2.80;;;;;;;29.04;68.37;100600.97;5067992;27;69767;-48
2022/09/29 03:07:10;;;;;;;;;;;;;;;28.65;69.53;100607.31;5073559;27;65686;-48
2022/09/29 03:09:43;;;;;;;4.10;2.83;;;;;;;29.00;68.65;100602.41;5069810;27;71422;-47
2022/09/29 03:12:17;;;;;;;3.00;2.80;;;;;;;29.04;68.88;100606.38;5076918;27;66756;-48
2022/09/29 03:14:49;;;;;;;3.58;3.08;;;;;;;29.09;68.54;100608.44;5073687;27;70268;-47
2022/09/29 03:17:22;;;;;;;4.00;2.88;;;;;;;29.01;68.21;100587.88;5080401;27;67648;-48
2022/09/29 03:19:54;;;;;;;3.92;2.80;;;;;;;29.12;68.25;100600.72;5067993;27;70384;-46
2022/09/29 03:22:27;;;;;;;3.03;2.58;;;;;;;29.09;68.34;100603.88;5065393;27;66716;-47
2022/09/29 03:24:59;;;;;;;2.85;2.65;;;;;;;29.14;68.24;100608.59;5070997;27;70736;-49
2022/09/29 03:27:33;;;;;;;3.22;2.85;;;;;;;29.14;68.60;100608.59;5073891;27;67284;-49
2022/09/29 03:30:06;;;;;;;3.05;2.70;;;;;;;29.15;68.24;100607.56;5070261;27;70091;-49
2022/09/29 03:32:38;;;;;;;2.85;2.65;;;;;;;29.15;68.36;100604.88;5070319;27;66662;-48
2022/09/29 03:35:11;;;;;;;3.28;2.42;;;;;;;29.15;68.87;100602.19;5072961;27;70395;-47
2022/09/29 03:37:44;;;;;;;3.80;2.63;;;;;;;29.15;68.87;100594.91;5073403;27;67397;-48
2022/09/29 03:40:16;;;;;;;2.72;2.53;;;;;;;29.19;68.95;100597.97;5069672;27;70743;-49
2022/09/29 03:42:49;;;;;;;3.08;2.78;;;;;;;29.11;68.95;100577.47;5071425;27;66386;-48
2022/09/29 03:45:21;;;;;;;2.85;2.42;;;;;;;29.21;68.62;100590.50;5073449;27;70970;-48
2022/09/29 03:47:53;;;;;;;3.03;2.63;;;;;;;29.14;69.18;100570.78;5071585;27;66232;-48
2022/09/29 03:50:25;;;;;;;2.85;2.63;;;;;;;29.22;68.71;100580.53;5072530;27;70323;-47
2022/09/29 03:52:58;;;;;;;2.67;2.42;;;;;;;29.21;68.57;100579.69;5074433;27;67345;-47
2022/09/29 03:55:30;;;;;;;5.80;2.63;;;;;;;29.22;69.05;100569.72;5079161;27;70156;-48
2022/09/29 03:58:02;;;;;;;2.47;2.28;;;;;;;29.24;68.88;100571.16;5068960;27;66379;-47
2022/09/29 04:00:35;;;;;;;2.85;2.65;;;;;;;29.23;69.00;100566.81;5077183;27;70754;-46
2022/09/29 04:03:07;;;;;;;4.72;2.58;;;;;;;28.92;68.96;100509.00;5071055;27;66681;-47
2022/09/29 04:05:40;;;;;;;4.00;2.45;;;;;;;29.27;68.57;100569.91;5066956;27;69623;-47
2022/09/29 04:08:13;;;;;;;6.15;2.33;;;;;;;29.12;68.59;100535.09;5068658;27;66576;-47
2022/09/29 04:10:47;;;;;;;6.40;2.45;;;;;;;29.23;68.30;100545.19;5067694;27;70857;-47
2022/09/29 04:13:20;;;;;;;3.25;2.47;;;;;;;29.27;68.20;100546.41;5071347;27;66343;-47
2022/09/29 04:15:58;;;;;;;5.45;2.50;;;;;;;28.84;68.28;100454.44;5067478;27;69945;-47
2022/09/29 04:18:31;;;;;;;2.30;2.10;;;;;;;29.29;68.50;100520.00;5065811;27;67700;-47
2022/09/29 04:21:07;;;;;;;3.53;2.33;;;;;;;29.29;68.70;100516.50;5066201;27;70205;-48
2022/09/29 04:23:40;;;;;;;3.53;2.47;;;;;;;29.28;68.24;100512.97;5069656;27;67178;-47
2022/09/29 04:26:13;;;;;;;2.15;2.00;;;;;;;29.31;68.21;100515.22;5075592;27;70286;-47
2022/09/29 04:28:46;;;;;;;2.53;2.33;;;;;;;29.31;67.94;100517.94;5069896;27;66164;-47
2022/09/29 04:31:19;;;;;;;5.05;2.42;;;;;;;29.28;68.68;100510.25;5073873;27;70751;-47
2022/09/29 04:33:51;;;;;;;4.63;2.92;;;;;;;29.22;68.19;100489.50;5068332;27;66352;-47
2022/09/29 04:36:24;;;;;;;2.50;2.30;;;;;;;29.32;68.12;100506.06;5085692;27;70303;-46
2022/09/29 04:38:56;;;;;;;3.42;2.38;;;;;;;29.34;68.23;100501.28;5079472;27;66121;-47
2022/09/29 04:41:32;;;;;;;2.50;2.10;;;;;;;29.35;68.44;100500.22;5085873;27;70656;-46
2022/09/29 04:44:05;;;;;;;2.38;2.17;;;;;;;29.35;68.00;100492.13;5075023;27;67147;-47
2022/09/29 04:46:37;;;;;;;3.58;2.72;;;;;;;29.37;68.24;100487.31;5071196;27;69761;-47
2022/09/29 04:49:09;;;;;;;3.08;2.78;;;;;;;29.33;67.82;100475.28;5075672;27;67724;-46
2022/09/29 04:51:42;;;;;;;2.30;2.10;;;;;;;29.40;68.30;100481.47;5075094;27;70357;-47
2022/09/29 04:54:16;;;;;;;4.00;2.78;;;;;;;29.38;67.94;100475.47;5078632;27;66735;-47
2022/09/29 04:56:51;;;;;;;2.55;2.22;;;;;;;29.43;67.65;100468.59;5083878;27;69967;-47
2022/09/29 04:59:24;;;;;;;4.63;2.22;;;;;;;29.45;67.54;100471.88;5076502;27;66383;-46
2022/09/29 05:01:57;;;;;;;3.20;2.45;;;;;;;29.45;68.27;100471.88;5068530;27;70668;-45
2022/09/29 05:04:30;;;;;;;2.97;2.63;;;;;;;29.33;68.17;100450.97;5070685;27;66953;-47
2022/09/29 05:07:03;;;;;;;2.83;2.63;;;;;;;29.50;67.52;100463.94;5071824;27;70875;-47
2022/09/29 05:09:35;;;;;;;2.72;2.47;;;;;;;29.53;67.87;100466.19;5069650;27;66353;-46
2022/09/29 05:12:07;;;;;;;2.80;2.60;;;;;;;29.54;67.84;100447.06;5072472;27;70135;-47
2022/09/29 05:14:40;;;;;;;3.00;2.65;;;;;;;29.54;67.98;100432.72;5066252;27;66958;-47
2022/09/29 05:17:12;;;;;;;2.75;2.55;;;;;;;29.57;67.85;100433.09;5067725;27;70211;-47
2022/09/29 05:19:45;;;;;;;3.25;2.42;;;;;;;29.44;67.46;100408.91;5067645;27;66535;-47
2022/09/29 05:22:23;;;;;;;2.67;2.47;;;;;;;29.62;67.30;100432.44;5071867;27;71211;-47
2022/09/29 05:24:55;;;;;;;2.53;2.33;;;;;;;29.63;67.33;100420.59;5069020;27;67163;-46
2022/09/29 05:27:28;;;;;;;2.78;2.58;;;;;;;29.61;67.32;100412.72;5064263;27;70062;-47
2022/09/29 05:30:01;;;;;;;3.17;2.17;;;;;;;29.51;67.66;100384.53;5062442;27;65313;-46
2022/09/29 05:32:33;;;;;;;2.55;2.35;;;;;;;29.70;67.71;100409.72;5068393;27;70208;-47
2022/09/29 05:35:06;;;;;;;2.70;2.50;;;;;;;29.73;67.27;100404.72;5069217;27;66538;-47
2022/09/29 05:37:39;;;;;;;2.40;2.20;;;;;;;29.74;67.65;100395.53;5069291;27;70069;-46
2022/09/29 05:40:12;;;;;;;2.35;2.15;;;;;;;29.77;67.48;100397.78;5065479;27;66705;-46
2022/09/29 05:42:46;;;;;;;2.30;2.10;;;;;;;29.79;67.35;100392.19;5073358;27;43860;-45
2022/09/29 05:45:19;;;;;;;2.28;2.08;;;;;;;29.68;68.08;100374.81;5069219;27;66389;-46
2022/09/29 05:47:53;;;;;;;4.60;2.88;;;;;;;29.61;69.05;100368.63;5062453;27;70767;-51
2022/09/29 05:50:25;;;;;;;2.75;2.30;;;;;;;29.05;69.51;100278.56;5068536;27;66949;-46
2022/09/29 05:53:07;;;;;;;2.45;2.25;;;;;;;29.51;70.13;100362.91;5069616;27;70232;-45
2022/09/29 05:55:40;;;;;;;2.67;2.33;;;;;;;29.50;70.48;100350.44;5070844;27;66915;-45
2022/09/29 05:58:12;;;;;;;3.97;2.53;;;;;;;29.55;70.15;100345.19;5068152;27;70667;-46
2022/09/29 06:00:45;;;;;;;2.13;1.83;;;;;;;29.54;70.61;100338.97;5071447;27;67200;-45
2022/09/29 06:03:17;;;;;;;2.28;2.08;;;;;;;29.55;70.62;100331.69;5072691;27;69999;-45
2022/09/29 06:05:50;;;;;;;3.17;2.15;;;;;;;29.59;70.31;100327.50;5069529;27;66637;-45
2022/09/29 06:08:22;;;;;;;2.30;2.08;;;;;;;29.59;70.46;100322.09;5074073;27;70091;-47
2022/09/29 06:10:54;;;;;;;2.28;2.03;;;;;;;29.56;70.44;100300.88;5067728;27;67037;-46
2022/09/29 06:13:27;;;;;;;3.08;2.30;;;;;;;29.19;70.29;100236.03;5069920;27;70758;-45
2022/09/29 06:16:00;;;;;;;2.97;2.10;;;;;;;29.63;70.50;100312.50;5072374;27;66686;-46
2022/09/29 06:18:33;;;;;;;5.05;2.53;;;;;;;29.64;70.66;100303.31;5066694;27;70708;-46
2022/09/29 06:21:11;;;;;;;2.05;1.85;;;;;;;29.40;70.58;100264.50;5066313;27;66773;-44
2022/09/29 06:23:44;;;;;;;2.72;2.15;;;;;;;29.67;70.44;100297.50;5067760;27;70799;-45
2022/09/29 06:26:18;;;;;;;2.20;2.00;;;;;;;29.74;70.23;100303.63;5071100;27;66254;-46
2022/09/29 06:28:55;;;;;;;2.35;1.67;;;;;;;29.72;70.41;100294.91;5066283;27;70222;-46
2022/09/29 06:31:30;;;;;;;2.70;2.22;;;;;;;29.23;70.71;100214.84;5063519;27;67021;-46
2022/09/29 06:34:04;;;;;;;2.63;2.35;;;;;;;29.77;70.30;100297.75;5068418;27;69966;-47
2022/09/29 06:39:31;;;;;;;2.22;1.63;;;;;;;29.68;70.58;100265.88;5062049;27;71029;-45
2022/09/29 06:42:05;;;;;;;3.22;1.77;;;;;;;29.84;70.56;100286.88;5065365;27;66908;-44
2022/09/29 06:44:38;;;;;;;1.52;1.42;;;;;;;29.84;70.63;100276.91;5070782;27;70660;-45
2022/09/29 06:47:10;;;;;;;2.88;1.92;;;;;;;29.89;70.33;100283.47;5074938;27;66862;-45
2022/09/29 06:49:43;;;;;;;3.72;1.58;;;;;;;29.90;70.46;100285.16;5073416;27;71151;-44
2022/09/29 06:52:22;;;;;;;2.05;1.60;;;;;;;29.96;70.29;100273.41;5067970;27;66518;-44
2022/09/29 06:54:59;;;;;;;2.22;1.45;;;;;;;29.96;70.03;100268.00;5067631;27;71275;-45
2022/09/29 06:57:32;;;;;;;2.45;1.58;;;;;;;29.99;70.34;100267.56;5074651;27;66797;-46
2022/09/29 07:00:06;;;;;;;5.20;1.92;;;;;;;29.98;69.86;100266.72;5070200;27;70547;-46
2022/09/29 07:02:38;;;;;;;2.30;1.63;;;;;;;30.00;69.87;100275.41;5070613;27;66320;-46
2022/09/29 07:05:10;;;;;;;3.28;1.55;;;;;;;30.00;69.88;100280.00;5074118;27;70366;-45
2022/09/29 07:07:43;;;;;;;4.97;1.52;;;;;;;30.02;69.93;100283.31;5067706;27;66027;-43
2022/09/29 07:10:21;;;;;;;1.45;1.27;;;;;;;29.96;70.23;100265.31;5065685;27;69596;-45
2022/09/29 07:12:54;;;;;;;1.95;1.17;;;;;;;29.92;70.01;100250.56;5068665;27;66337;-46
2022/09/29 07:15:30;;;;;;;16.02;2.67;;;;;;;30.05;69.79;100272.03;5074387;27;70594;-46
2022/09/29 07:18:04;;;;;;;1.73;1.60;;;;;;;30.13;69.75;100274.41;5069650;27;65939;-44
2022/09/29 07:20:36;;;;;;;2.90;1.33;;;;;;;30.16;70.06;100273.97;5071651;27;69614;-46
2022/09/29 07:23:08;;;;;;;1.73;1.45;;;;;;;30.16;70.05;100289.38;5072215;27;66971;-47
2022/09/29 07:25:41;;;;;;;8.35;1.60;;;;;;;30.17;69.49;100274.78;5065548;27;68337;-45
2022/09/29 07:28:22;;;;;;;2.42;1.80;;;;;;;30.28;69.39;100288.41;5067612;27;66939;-44
2022/09/29 07:31:03;;;;;;;4.85;1.40;;;;;;;30.01;69.23;100241.09;5069110;27;70569;-45
2022/09/29 07:33:45;;;;;;;2.38;1.67;;;;;;;30.24;69.64;100268.25;5067212;27;66590;-45
2022/09/29 07:36:20;;;;;;;3.28;1.60;;;;;;;29.79;69.24;100184.00;5069288;27;70784;-45
2022/09/29 07:38:52;;;;;;;2.35;1.48;;;;;;;30.41;69.28;100281.94;5072755;27;66585;-47
2022/09/29 07:41:25;;;;;;;2.80;1.83;;;;;;;30.39;69.77;100280.53;5066461;27;71073;-46
2022/09/29 07:43:57;;;;;;;1.55;1.45;;;;;;;30.42;69.25;100282.75;5074699;27;66571;-47
2022/09/29 07:46:31;;;;;;;2.85;1.33;;;;;;;30.46;69.72;100283.97;5066661;27;71974;-48
2022/09/29 07:49:04;;;;;;;2.13;1.55;;;;;;;30.46;69.43;100284.78;5069625;27;66686;-46
2022/09/29 07:51:36;;;;;;;2.67;1.73;;;;;;;30.53;69.00;100268.44;5065938;27;70807;-46
2022/09/29 07:54:09;;;;;;;5.07;4.13;;;;;;;30.70;68.56;100285.66;5068183;27;66545;-47
2022/09/29 07:56:42;;;;;;;8.73;8.07;;;;;;;30.77;69.27;100285.53;5068980;27;70655;-45
2022/09/29 07:59:14;;;;;;;6.93;6.45;;;;;;;30.71;68.99;100272.94;5065056;27;67015;-46
2022/09/29 08:01:47;;;;;;;7.15;6.63;;;;;;;30.83;68.89;100281.09;5075108;27;70412;-47
2022/09/29 08:04:19;;;;;;;6.63;6.03;;;;;;;30.88;68.89;100286.66;5067819;27;66327;-46
2022/09/29 08:06:52;;;;;;;9.82;7.78;;;;;;;30.92;69.57;100294.09;5071854;27;70936;-46
2022/09/29 08:09:24;;;;;;;13.50;8.68;;;;;;;30.87;69.66;100282.28;5066406;27;66496;-47
2022/09/29 08:12:12;;;;;;;9.95;8.38;;;;;;;30.95;69.38;100300.88;5065603;27;69752;-46
2022/09/29 08:14:44;;;;;;;8.77;7.97;;;;;;;30.91;69.17;100280.75;5068065;27;67041;-46
2022/09/29 08:17:17;;;;;;;11.90;9.38;;;;;;;30.98;69.22;100289.59;5058466;27;70428;-43
2022/09/29 08:19:50;;;;;;;12.15;9.60;;;;;;;30.78;71.60;100286.38;5066210;27;66021;-46
2022/09/29 08:22:22;;;;;;;13.73;9.90;;;;;;;30.67;71.99;100280.72;5066987;27;69760;-46
2022/09/29 08:24:55;;;;;;;12.18;11.10;;;;;;;30.59;72.76;100275.66;5071557;27;67515;-47
2022/09/29 08:27:28;;;;;;;18.98;15.65;;;;;;;30.54;72.91;100269.28;5063394;27;70055;-46
2022/09/29 08:30:00;;;;;;;21.00;19.10;;;;;;;30.55;72.56;100265.50;5059935;27;66136;-46
2022/09/29 08:32:33;;;;;;;22.15;20.17;;;;;;;30.56;73.37;100261.72;5067745;27;70805;-47
2022/09/29 08:35:06;;;;;;;25.05;22.35;;;;;;;30.58;73.52;100262.34;5069901;27;65940;-46
2022/09/29 08:37:39;;;;;;;22.77;20.35;;;;;;;30.60;73.01;100263.75;5067719;27;71059;-46
2022/09/29 08:40:11;;;;;;;26.02;20.48;;;;;;;30.59;73.40;100264.81;5065221;27;66955;-45
2022/09/29 08:43:20;;;;;;;24.05;21.48;;;;;;;30.63;72.87;100279.53;5070421;27;71589;-45
2022/09/29 08:46:28;;;;;;;28.33;20.10;;;;;;;30.51;73.29;100292.22;5055557;27;66894;-45
2022/09/29 08:49:40;;;;;;;26.98;17.92;;;;;;;30.46;74.21;100311.03;5065001;27;70809;-50
2022/09/29 08:52:20;;;;;;;18.60;16.90;;;;;;;30.53;74.29;100300.91;5070752;27;66933;-52
2022/09/29 08:55:19;;;;;;;19.00;17.27;;;;;;;30.42;74.10;100304.41;5068367;27;70879;-52
2022/09/29 08:58:01;;;;;;;19.95;17.88;;;;;;;30.51;74.04;100319.28;5048999;27;66682;-51
2022/09/29 09:00:58;;;;;;;19.15;17.08;;;;;;;30.37;74.68;100306.97;5067188;27;70469;-51
2022/09/29 09:04:07;;;;;;;19.75;16.50;;;;;;;30.69;74.01;100331.91;5067906;27;66540;-52
2022/09/29 09:06:54;;;;;;;22.90;19.83;;;;;;;30.88;72.65;100341.63;5069545;27;69785;-53
2022/09/29 09:09:47;;;;;;;24.08;21.45;;;;;;;30.94;72.97;100339.88;5068508;27;66175;-52
2022/09/29 09:12:29;;;;;;;24.98;21.48;;;;;;;30.75;72.29;100313.91;5068373;27;71281;-53
2022/09/29 09:15:09;;;;;;;;;;;;;;;30.77;73.26;100338.88;5068598;27;66703;-54
2022/09/29 09:18:09;;;;;;;25.13;22.55;;;;;;;31.03;72.12;100387.22;5067806;27;71136;-54
2022/09/29 09:21:08;;;;;;;26.05;23.42;;;;;;;30.63;71.65;100365.31;5065927;27;66392;-51
2022/09/29 09:23:54;;;;;;;28.20;23.00;;;;;;;31.11;71.90;100443.78;5070304;27;70894;-53
2022/09/29 09:26:43;;;;;;;23.85;19.33;;;;;;;31.13;71.39;100435.41;5077125;27;67003;-53
2022/09/29 09:29:34;;;;;;;20.40;18.33;;;;;;;31.03;71.96;100418.91;5073276;27;70387;-51
2022/09/29 09:32:13;;;;;;;21.73;18.90;;;;;;;31.19;71.72;100444.50;5077772;27;66523;-52
2022/09/29 09:34:58;;;;;;;21.50;17.75;;;;;;;31.12;71.64;100441.88;5065697;27;70147;-53
2022/09/29 09:37:53;;;;;;;16.17;14.60;;;;;;;31.14;71.26;100440.59;5068200;27;66488;-53
2022/09/29 09:40:42;;;;;;;17.33;13.48;;;;;;;30.89;71.70;100413.69;5077567;27;70792;-48
2022/09/29 09:43:22;;;;;;;15.25;13.45;;;;;;;30.34;72.58;100372.38;5070215;27;67017;-50
2022/09/29 09:46:03;;;;;;;15.32;11.95;;;;;;;30.26;73.84;100370.84;5076621;27;70930;-48
2022/09/29 09:48:41;;;;;;;11.50;10.40;;;;;;;30.27;74.52;100402.25;5071316;27;66961;-49
2022/09/29 09:51:22;;;;;;;9.73;8.88;;;;;;;30.57;74.21;100453.69;5072385;27;70792;-47
2022/09/29 09:53:58;;;;;;;8.82;7.55;;;;;;;30.02;74.93;100375.28;5073353;27;67521;-48
2022/09/29 09:57:00;;;;;;;9.15;6.18;;;;;;;29.51;74.60;100316.97;5070644;27;72442;-50
2022/09/29 10:00:00;;;;;;;6.95;6.38;;;;;;;30.30;75.24;100458.59;5072550;27;66963;-48
2022/09/29 10:02:54;;;;;;;7.50;6.10;;;;;;;30.35;75.16;100456.06;5065123;27;70552;-49
2022/09/29 10:05:47;;;;;;;10.18;5.55;;;;;;;30.27;75.39;100453.66;5067255;27;66773;-50
2022/09/29 10:08:38;;;;;;;11.07;4.57;;;;;;;29.84;75.54;100390.44;5071689;27;69974;-50
2022/09/29 10:11:30;;;;;;;8.43;4.53;;;;;;;30.23;75.89;100461.41;5061505;27;66326;-49
2022/09/29 10:14:08;;;;;;;;;;;;;;;29.97;76.35;100450.84;5067564;27;70691;-49
2022/09/29 10:17:04;;;;;;;5.97;4.43;;;;;;;29.68;75.75;100369.41;5068218;27;67699;-46
2022/09/29 10:19:54;;;;;;;10.15;4.13;;;;;;;30.13;76.23;100444.00;5073667;27;70939;-45
2022/09/29 10:22:28;;;;;;;4.50;3.75;;;;;;;29.61;76.15;100357.81;5067365;27;67359;-46
2022/09/29 10:25:19;;;;;;;8.98;3.95;;;;;;;30.05;76.95;100437.00;5065473;27;70153;-46
2022/09/29 10:27:56;;;;;;;8.82;3.70;;;;;;;29.82;76.42;100410.66;5068911;27;66336;-49
2022/09/29 10:30:34;;;;;;;12.30;4.20;;;;;;;30.10;76.88;100458.81;5068247;27;70628;-45
2022/09/29 10:33:15;;;;;;;5.72;3.42;;;;;;;30.10;76.51;100447.16;5069181;27;67199;-46
2022/09/29 10:35:51;;;;;;;9.00;3.30;;;;;;;29.14;77.10;100298.00;5069981;27;70499;-47
2022/09/29 10:38:25;;;;;;;5.50;3.05;;;;;;;29.68;77.30;100399.16;5076857;27;66249;-47
2022/09/29 10:41:02;;;;;;;4.05;2.92;;;;;;;30.02;77.50;100445.59;5075952;27;70071;-48
2022/09/29 10:43:43;;;;;;;3.35;3.05;;;;;;;30.01;78.14;100465.56;5070165;27;67393;-45
2022/09/29 10:46:52;;;;;;;8.85;3.17;;;;;;;29.91;78.63;100455.25;5067451;27;71279;-46
2022/09/29 10:49:28;;;;;;;6.63;3.03;;;;;;;29.44;78.19;100372.94;5067856;27;67030;-44
2022/09/29 10:52:15;;;;;;;10.48;2.75;;;;;;;29.53;78.19;100387.81;5074773;27;70985;-46
2022/09/29 10:55:04;;;;;;;4.63;3.35;;;;;;;29.93;78.09;100463.97;5068930;27;67045;-43
2022/09/29 10:57:38;;;;;;;6.97;2.88;;;;;;;29.63;76.10;100377.38;5073268;27;70645;-43
2022/09/29 11:00:35;;;;;;;3.22;2.80;;;;;;;30.06;76.81;100469.25;5072144;27;66831;-44
2022/09/29 11:03:18;;;;;;;2.67;2.47;;;;;;;29.96;75.64;100435.66;5073954;27;70153;-43
2022/09/29 11:06:04;;;;;;;3.10;2.83;;;;;;;30.19;75.78;100489.91;5068412;27;66565;-43
2022/09/29 11:08:59;;;;;;;2.88;2.55;;;;;;;30.14;75.57;100487.06;5077589;27;70783;-43
2022/09/29 11:11:38;;;;;;;3.30;3.03;;;;;;;30.26;74.71;100492.59;5045436;27;67115;-43
2022/09/29 11:14:24;;;;;;;3.15;2.38;;;;;;;30.19;74.87;100495.31;5074767;27;70218;-43
2022/09/29 11:16:59;;;;;;;3.22;2.92;;;;;;;29.84;75.00;100428.31;5073590;27;67060;-43
2022/09/29 11:19:32;;;;;;;3.58;3.28;;;;;;;30.26;74.65;100496.13;5073293;27;70881;-43
2022/09/29 11:22:33;;;;;;;4.05;2.83;;;;;;;30.24;74.29;100498.22;5072916;27;66954;-43
2022/09/29 11:25:11;;;;;;;3.65;3.15;;;;;;;30.28;74.64;100499.44;5045561;27;71177;-43
2022/09/29 11:27:59;;;;;;;4.80;3.28;;;;;;;30.30;74.32;100511.91;5065182;27;66897;-44
2022/09/29 11:30:56;;;;;;;4.80;3.60;;;;;;;30.16;74.24;100517.41;5080395;27;70798;-43
2022/09/29 11:34:11;;;;;;;4.57;4.28;;;;;;;29.60;74.91;100429.13;5081412;27;66288;-44
2022/09/29 11:37:01;;;;;;;3.28;3.08;;;;;;;30.00;74.32;100490.94;5067133;27;70734;-43
2022/09/29 11:40:01;;;;;;;3.55;3.30;;;;;;;30.05;74.57;100491.09;5068541;27;67053;-43
2022/09/29 11:42:37;;;;;;;3.97;3.67;;;;;;;30.22;73.98;100521.97;5075493;27;70759;-43
2022/09/29 11:45:17;;;;;;;4.00;3.05;;;;;;;29.65;74.27;100429.34;5066008;27;66863;-43
2022/09/29 11:48:09;;;;;;;4.47;4.18;;;;;;;30.15;74.54;100532.00;5072917;27;71391;-43
2022/09/29 11:51:21;;;;;;;5.50;3.67;;;;;;;29.63;74.16;100458.44;5078231;27;66248;-43
2022/09/29 11:54:02;;;;;;;3.50;3.30;;;;;;;29.57;74.43;100445.81;5067543;27;70905;-46
2022/09/29 11:57:03;;;;;;;5.28;3.97;;;;;;;30.24;73.87;100555.03;5066220;27;66705;-43
2022/09/29 11:59:56;;;;;;;4.70;4.32;;;;;;;30.24;74.27;100546.09;5067952;27;72159;-43
2022/09/29 12:03:05;;;;;;;6.78;4.60;;;;;;;29.91;77.13;100559.91;5065526;27;64869;-43
2022/09/29 12:05:44;;;;;;;5.13;4.72;;;;;;;29.88;77.45;100568.47;5068172;27;71684;-43
2022/09/29 12:08:37;;;;;;;7.07;5.28;;;;;;;29.78;77.68;100567.09;5069059;27;66902;-42
2022/09/29 12:11:14;;;;;;;6.03;5.53;;;;;;;29.78;78.23;100571.66;5073734;27;71085;-42
2022/09/29 12:14:24;;;;;;;5.90;5.57;;;;;;;29.67;78.33;100573.22;5067050;27;66971;-42
2022/09/29 12:17:01;;;;;;;6.22;5.80;;;;;;;29.72;79.12;100583.34;5068608;27;70912;-42
2022/09/29 12:19:38;;;;;;;6.85;6.15;;;;;;;29.31;78.55;100520.63;5070766;27;66391;-44
2022/09/29 12:22:18;;;;;;;7.50;6.88;;;;;;;29.69;78.77;100586.50;5069012;27;70773;-44
2022/09/29 12:24:54;;;;;;;7.97;6.38;;;;;;;29.68;78.83;100599.19;5068128;27;66014;-43